sensor_id;sensor_type;location;lat;lon;timestamp;P1;durP1;ratioP1;P2;durP2;ratioP2
2173;SDS011;1093;51.424;11.764;2023-04-25T00:00:53;9.33;;;6.43;;
2173;SDS011;1093;51.424;11.764;2023-04-25T00:03:20;9.63;;;6.07;;
2173;SDS011;1093;51.424;11.764;2023-04-25T00:05:48;6.17;;;5.10;;
2173;SDS011;1093;51.424;11.764;2023-04-25T00:08:16;8.37;;;6.43;;
2173;SDS011;1093;51.424;11.764;2023-04-25T00:10:43;6.53;;;5.70;;
2173;SDS011;1093;51.424;11.764;2023-04-25T00:13:10;7.73;;;5.73;;
2173;SDS011;1093;51.424;11.764;2023-04-25T00:15:36;7.70;;;5.33;;
2173;SDS011;1093;51.424;11.764;2023-04-25T00:18:03;8.73;;;5.97;;
2173;SDS011;1093;51.424;11.764;2023-04-25T00:20:31;8.57;;;6.83;;
2173;SDS011;1093;51.424;11.764;2023-04-25T00:22:59;6.87;;;5.80;;
2173;SDS011;1093;51.424;11.764;2023-04-25T00:25:26;9.30;;;6.00;;
2173;SDS011;1093;51.424;11.764;2023-04-25T00:27:53;8.87;;;5.57;;
2173;SDS011;1093;51.424;11.764;2023-04-25T00:30:20;6.67;;;5.77;;
2173;SDS011;1093;51.424;11.764;2023-04-25T00:32:47;7.83;;;5.90;;
2173;SDS011;1093;51.424;11.764;2023-04-25T00:35:14;7.00;;;5.77;;
2173;SDS011;1093;51.424;11.764;2023-04-25T00:37:40;12.13;;;6.40;;
2173;SDS011;1093;51.424;11.764;2023-04-25T00:40:09;8.10;;;6.43;;
2173;SDS011;1093;51.424;11.764;2023-04-25T00:42:36;8.50;;;6.93;;
2173;SDS011;1093;51.424;11.764;2023-04-25T00:45:04;12.00;;;7.17;;
2173;SDS011;1093;51.424;11.764;2023-04-25T00:47:33;10.63;;;6.27;;
2173;SDS011;1093;51.424;11.764;2023-04-25T00:50:01;9.57;;;6.83;;
2173;SDS011;1093;51.424;11.764;2023-04-25T00:52:28;6.70;;;6.00;;
2173;SDS011;1093;51.424;11.764;2023-04-25T00:54:55;9.10;;;6.00;;
2173;SDS011;1093;51.424;11.764;2023-04-25T00:57:23;9.87;;;7.03;;
2173;SDS011;1093;51.424;11.764;2023-04-25T00:59:50;13.00;;;6.20;;
2173;SDS011;1093;51.424;11.764;2023-04-25T01:02:18;6.47;;;5.63;;
2173;SDS011;1093;51.424;11.764;2023-04-25T01:04:47;10.03;;;5.60;;
2173;SDS011;1093;51.424;11.764;2023-04-25T01:07:14;10.17;;;5.63;;
2173;SDS011;1093;51.424;11.764;2023-04-25T01:09:41;9.90;;;6.20;;
2173;SDS011;1093;51.424;11.764;2023-04-25T01:12:08;7.40;;;6.20;;
2173;SDS011;1093;51.424;11.764;2023-04-25T01:14:36;8.10;;;4.93;;
2173;SDS011;1093;51.424;11.764;2023-04-25T01:17:03;7.80;;;5.20;;
2173;SDS011;1093;51.424;11.764;2023-04-25T01:19:32;7.33;;;4.90;;
2173;SDS011;1093;51.424;11.764;2023-04-25T01:22:00;15.00;;;6.13;;
2173;SDS011;1093;51.424;11.764;2023-04-25T01:24:28;9.50;;;5.30;;
2173;SDS011;1093;51.424;11.764;2023-04-25T01:26:55;10.40;;;6.47;;
2173;SDS011;1093;51.424;11.764;2023-04-25T01:29:22;7.67;;;5.30;;
2173;SDS011;1093;51.424;11.764;2023-04-25T01:31:50;8.77;;;5.57;;
2173;SDS011;1093;51.424;11.764;2023-04-25T01:34:17;8.30;;;5.30;;
2173;SDS011;1093;51.424;11.764;2023-04-25T01:36:45;6.97;;;4.90;;
2173;SDS011;1093;51.424;11.764;2023-04-25T01:39:16;7.30;;;5.40;;
2173;SDS011;1093;51.424;11.764;2023-04-25T01:41:43;6.00;;;5.10;;
2173;SDS011;1093;51.424;11.764;2023-04-25T01:44:10;11.13;;;5.43;;
2173;SDS011;1093;51.424;11.764;2023-04-25T01:46:37;8.60;;;5.60;;
2173;SDS011;1093;51.424;11.764;2023-04-25T01:49:04;16.67;;;6.83;;
2173;SDS011;1093;51.424;11.764;2023-04-25T01:51:31;11.07;;;5.90;;
2173;SDS011;1093;51.424;11.764;2023-04-25T01:53:58;7.50;;;4.57;;
2173;SDS011;1093;51.424;11.764;2023-04-25T01:56:27;9.97;;;5.63;;
2173;SDS011;1093;51.424;11.764;2023-04-25T01:58:56;5.87;;;5.27;;
2173;SDS011;1093;51.424;11.764;2023-04-25T02:01:23;7.70;;;4.40;;
2173;SDS011;1093;51.424;11.764;2023-04-25T02:03:50;13.83;;;5.90;;
2173;SDS011;1093;51.424;11.764;2023-04-25T02:06:17;8.90;;;5.47;;
2173;SDS011;1093;51.424;11.764;2023-04-25T02:08:44;10.37;;;5.00;;
2173;SDS011;1093;51.424;11.764;2023-04-25T02:11:10;10.90;;;5.30;;
2173;SDS011;1093;51.424;11.764;2023-04-25T02:13:38;8.20;;;4.87;;
2173;SDS011;1093;51.424;11.764;2023-04-25T02:16:05;10.03;;;5.40;;
2173;SDS011;1093;51.424;11.764;2023-04-25T02:18:32;9.27;;;5.03;;
2173;SDS011;1093;51.424;11.764;2023-04-25T02:20:59;12.43;;;6.10;;
2173;SDS011;1093;51.424;11.764;2023-04-25T02:23:26;7.90;;;5.43;;
2173;SDS011;1093;51.424;11.764;2023-04-25T02:25:53;13.73;;;6.10;;
2173;SDS011;1093;51.424;11.764;2023-04-25T02:28:20;13.07;;;6.03;;
2173;SDS011;1093;51.424;11.764;2023-04-25T02:30:48;11.93;;;5.27;;
2173;SDS011;1093;51.424;11.764;2023-04-25T02:33:15;12.87;;;5.53;;
2173;SDS011;1093;51.424;11.764;2023-04-25T02:35:42;11.37;;;6.00;;
2173;SDS011;1093;51.424;11.764;2023-04-25T02:38:09;8.97;;;5.60;;
2173;SDS011;1093;51.424;11.764;2023-04-25T02:40:35;13.10;;;7.53;;
2173;SDS011;1093;51.424;11.764;2023-04-25T02:43:02;11.40;;;5.57;;
2173;SDS011;1093;51.424;11.764;2023-04-25T02:45:29;9.57;;;6.33;;
2173;SDS011;1093;51.424;11.764;2023-04-25T02:47:57;8.63;;;5.80;;
2173;SDS011;1093;51.424;11.764;2023-04-25T02:50:24;14.27;;;6.57;;
2173;SDS011;1093;51.424;11.764;2023-04-25T02:52:51;14.47;;;6.30;;
2173;SDS011;1093;51.424;11.764;2023-04-25T02:55:17;14.27;;;7.30;;
2173;SDS011;1093;51.424;11.764;2023-04-25T02:57:44;12.50;;;6.40;;
2173;SDS011;1093;51.424;11.764;2023-04-25T03:00:12;12.67;;;7.10;;
2173;SDS011;1093;51.424;11.764;2023-04-25T03:02:40;17.43;;;7.40;;
2173;SDS011;1093;51.424;11.764;2023-04-25T03:05:08;17.33;;;8.30;;
2173;SDS011;1093;51.424;11.764;2023-04-25T03:07:35;15.60;;;9.93;;
2173;SDS011;1093;51.424;11.764;2023-04-25T03:10:01;14.03;;;8.10;;
2173;SDS011;1093;51.424;11.764;2023-04-25T03:12:28;14.27;;;8.30;;
2173;SDS011;1093;51.424;11.764;2023-04-25T03:14:55;15.30;;;7.33;;
2173;SDS011;1093;51.424;11.764;2023-04-25T03:17:21;17.60;;;9.03;;
2173;SDS011;1093;51.424;11.764;2023-04-25T03:19:48;14.30;;;8.20;;
2173;SDS011;1093;51.424;11.764;2023-04-25T03:22:16;11.83;;;6.80;;
2173;SDS011;1093;51.424;11.764;2023-04-25T03:24:43;10.53;;;6.30;;
2173;SDS011;1093;51.424;11.764;2023-04-25T03:27:10;11.63;;;6.60;;
2173;SDS011;1093;51.424;11.764;2023-04-25T03:29:36;10.70;;;7.00;;
2173;SDS011;1093;51.424;11.764;2023-04-25T03:32:03;10.10;;;7.27;;
2173;SDS011;1093;51.424;11.764;2023-04-25T03:34:30;14.17;;;5.93;;
2173;SDS011;1093;51.424;11.764;2023-04-25T03:36:57;14.13;;;6.70;;
2173;SDS011;1093;51.424;11.764;2023-04-25T03:39:25;11.70;;;7.53;;
2173;SDS011;1093;51.424;11.764;2023-04-25T03:41:52;21.40;;;7.73;;
2173;SDS011;1093;51.424;11.764;2023-04-25T03:44:18;13.03;;;7.13;;
2173;SDS011;1093;51.424;11.764;2023-04-25T03:46:45;16.73;;;8.60;;
2173;SDS011;1093;51.424;11.764;2023-04-25T03:49:12;22.57;;;9.20;;
2173;SDS011;1093;51.424;11.764;2023-04-25T03:51:39;16.53;;;9.17;;
2173;SDS011;1093;51.424;11.764;2023-04-25T03:54:05;16.70;;;8.43;;
2173;SDS011;1093;51.424;11.764;2023-04-25T03:56:34;16.73;;;9.00;;
2173;SDS011;1093;51.424;11.764;2023-04-25T03:59:00;17.43;;;8.50;;
2173;SDS011;1093;51.424;11.764;2023-04-25T04:01:27;17.30;;;8.47;;
2173;SDS011;1093;51.424;11.764;2023-04-25T04:03:54;19.70;;;9.03;;
2173;SDS011;1093;51.424;11.764;2023-04-25T04:06:20;12.97;;;9.43;;
2173;SDS011;1093;51.424;11.764;2023-04-25T04:08:47;18.93;;;9.83;;
2173;SDS011;1093;51.424;11.764;2023-04-25T04:11:14;20.20;;;10.43;;
2173;SDS011;1093;51.424;11.764;2023-04-25T04:13:42;15.80;;;9.73;;
2173;SDS011;1093;51.424;11.764;2023-04-25T04:16:09;18.90;;;11.23;;
2173;SDS011;1093;51.424;11.764;2023-04-25T04:18:36;15.87;;;9.70;;
2173;SDS011;1093;51.424;11.764;2023-04-25T04:21:02;25.33;;;10.87;;
2173;SDS011;1093;51.424;11.764;2023-04-25T04:23:29;21.87;;;10.73;;
2173;SDS011;1093;51.424;11.764;2023-04-25T04:25:56;18.43;;;9.33;;
2173;SDS011;1093;51.424;11.764;2023-04-25T04:28:23;15.93;;;9.70;;
2173;SDS011;1093;51.424;11.764;2023-04-25T04:30:51;16.67;;;10.60;;
2173;SDS011;1093;51.424;11.764;2023-04-25T04:33:18;20.03;;;9.80;;
2173;SDS011;1093;51.424;11.764;2023-04-25T04:35:45;16.73;;;9.93;;
2173;SDS011;1093;51.424;11.764;2023-04-25T04:38:13;17.67;;;10.90;;
2173;SDS011;1093;51.424;11.764;2023-04-25T04:40:40;18.50;;;11.20;;
2173;SDS011;1093;51.424;11.764;2023-04-25T04:43:07;29.60;;;12.57;;
2173;SDS011;1093;51.424;11.764;2023-04-25T04:45:35;18.73;;;11.40;;
2173;SDS011;1093;51.424;11.764;2023-04-25T04:48:05;21.23;;;12.20;;
2173;SDS011;1093;51.424;11.764;2023-04-25T04:50:31;20.57;;;11.13;;
2173;SDS011;1093;51.424;11.764;2023-04-25T04:52:58;25.97;;;11.77;;
2173;SDS011;1093;51.424;11.764;2023-04-25T04:55:25;22.50;;;11.17;;
2173;SDS011;1093;51.424;11.764;2023-04-25T04:57:52;24.60;;;12.77;;
2173;SDS011;1093;51.424;11.764;2023-04-25T05:00:19;24.47;;;12.03;;
2173;SDS011;1093;51.424;11.764;2023-04-25T05:02:46;18.87;;;11.80;;
2173;SDS011;1093;51.424;11.764;2023-04-25T05:05:15;18.97;;;10.60;;
2173;SDS011;1093;51.424;11.764;2023-04-25T05:07:41;18.90;;;11.20;;
2173;SDS011;1093;51.424;11.764;2023-04-25T05:10:08;22.77;;;12.20;;
2173;SDS011;1093;51.424;11.764;2023-04-25T05:12:37;16.47;;;10.47;;
2173;SDS011;1093;51.424;11.764;2023-04-25T05:15:04;17.33;;;10.40;;
2173;SDS011;1093;51.424;11.764;2023-04-25T05:17:31;20.00;;;11.50;;
2173;SDS011;1093;51.424;11.764;2023-04-25T05:19:58;26.60;;;11.50;;
2173;SDS011;1093;51.424;11.764;2023-04-25T05:22:26;19.93;;;11.23;;
2173;SDS011;1093;51.424;11.764;2023-04-25T05:24:53;21.43;;;13.03;;
2173;SDS011;1093;51.424;11.764;2023-04-25T05:27:20;21.40;;;11.80;;
2173;SDS011;1093;51.424;11.764;2023-04-25T05:29:47;23.73;;;12.90;;
2173;SDS011;1093;51.424;11.764;2023-04-25T05:32:13;14.67;;;10.47;;
2173;SDS011;1093;51.424;11.764;2023-04-25T05:34:40;22.17;;;10.50;;
2173;SDS011;1093;51.424;11.764;2023-04-25T05:37:08;20.73;;;11.20;;
2173;SDS011;1093;51.424;11.764;2023-04-25T05:39:36;22.47;;;11.80;;
2173;SDS011;1093;51.424;11.764;2023-04-25T05:42:02;17.70;;;10.70;;
2173;SDS011;1093;51.424;11.764;2023-04-25T05:44:29;16.43;;;10.70;;
2173;SDS011;1093;51.424;11.764;2023-04-25T05:46:56;18.87;;;11.43;;
2173;SDS011;1093;51.424;11.764;2023-04-25T05:49:23;22.27;;;10.90;;
2173;SDS011;1093;51.424;11.764;2023-04-25T05:51:50;23.30;;;10.83;;
2173;SDS011;1093;51.424;11.764;2023-04-25T05:54:16;18.80;;;13.10;;
2173;SDS011;1093;51.424;11.764;2023-04-25T05:56:44;18.50;;;11.83;;
2173;SDS011;1093;51.424;11.764;2023-04-25T05:59:11;21.10;;;10.83;;
2173;SDS011;1093;51.424;11.764;2023-04-25T06:01:38;16.73;;;11.30;;
2173;SDS011;1093;51.424;11.764;2023-04-25T06:04:05;15.80;;;10.33;;
2173;SDS011;1093;51.424;11.764;2023-04-25T06:06:32;15.03;;;10.83;;
2173;SDS011;1093;51.424;11.764;2023-04-25T06:08:59;17.63;;;11.07;;
2173;SDS011;1093;51.424;11.764;2023-04-25T06:11:26;20.00;;;11.13;;
2173;SDS011;1093;51.424;11.764;2023-04-25T06:13:54;15.30;;;10.87;;
2173;SDS011;1093;51.424;11.764;2023-04-25T06:16:21;20.03;;;11.70;;
2173;SDS011;1093;51.424;11.764;2023-04-25T06:18:49;16.00;;;10.90;;
2173;SDS011;1093;51.424;11.764;2023-04-25T06:21:16;13.40;;;10.60;;
2173;SDS011;1093;51.424;11.764;2023-04-25T06:23:43;18.27;;;10.50;;
2173;SDS011;1093;51.424;11.764;2023-04-25T06:26:09;25.37;;;10.70;;
2173;SDS011;1093;51.424;11.764;2023-04-25T06:28:36;19.20;;;10.30;;
2173;SDS011;1093;51.424;11.764;2023-04-25T06:31:04;18.63;;;10.90;;
2173;SDS011;1093;51.424;11.764;2023-04-25T06:33:31;17.53;;;11.93;;
2173;SDS011;1093;51.424;11.764;2023-04-25T06:35:57;20.83;;;11.57;;
2173;SDS011;1093;51.424;11.764;2023-04-25T06:38:24;17.47;;;11.17;;
2173;SDS011;1093;51.424;11.764;2023-04-25T06:40:51;17.80;;;10.90;;
2173;SDS011;1093;51.424;11.764;2023-04-25T06:43:17;16.90;;;10.60;;
2173;SDS011;1093;51.424;11.764;2023-04-25T06:45:44;25.83;;;12.40;;
2173;SDS011;1093;51.424;11.764;2023-04-25T06:48:12;16.43;;;10.93;;
2173;SDS011;1093;51.424;11.764;2023-04-25T06:50:39;19.70;;;11.67;;
2173;SDS011;1093;51.424;11.764;2023-04-25T06:53:06;15.17;;;11.80;;
2173;SDS011;1093;51.424;11.764;2023-04-25T06:55:33;19.13;;;11.70;;
2173;SDS011;1093;51.424;11.764;2023-04-25T06:58:00;21.43;;;11.77;;
2173;SDS011;1093;51.424;11.764;2023-04-25T07:00:28;16.10;;;11.57;;
2173;SDS011;1093;51.424;11.764;2023-04-25T07:02:55;19.30;;;10.93;;
2173;SDS011;1093;51.424;11.764;2023-04-25T07:05:23;22.63;;;10.00;;
2173;SDS011;1093;51.424;11.764;2023-04-25T07:07:50;19.07;;;10.83;;
2173;SDS011;1093;51.424;11.764;2023-04-25T07:10:17;9.60;;;4.90;;
2173;SDS011;1093;51.424;11.764;2023-04-25T07:12:43;11.53;;;3.73;;
2173;SDS011;1093;51.424;11.764;2023-04-25T07:15:10;6.60;;;3.27;;
2173;SDS011;1093;51.424;11.764;2023-04-25T07:17:37;6.00;;;3.70;;
2173;SDS011;1093;51.424;11.764;2023-04-25T07:20:04;11.23;;;3.27;;
2173;SDS011;1093;51.424;11.764;2023-04-25T07:22:34;13.30;;;4.73;;
2173;SDS011;1093;51.424;11.764;2023-04-25T07:25:00;6.80;;;2.90;;
2173;SDS011;1093;51.424;11.764;2023-04-25T07:27:29;5.73;;;3.97;;
2173;SDS011;1093;51.424;11.764;2023-04-25T07:29:56;11.20;;;4.23;;
2173;SDS011;1093;51.424;11.764;2023-04-25T07:32:22;10.73;;;3.67;;
2173;SDS011;1093;51.424;11.764;2023-04-25T07:34:49;8.20;;;3.40;;
2173;SDS011;1093;51.424;11.764;2023-04-25T07:37:16;4.33;;;3.03;;
2173;SDS011;1093;51.424;11.764;2023-04-25T07:39:45;6.37;;;3.63;;
2173;SDS011;1093;51.424;11.764;2023-04-25T07:42:12;7.07;;;4.13;;
2173;SDS011;1093;51.424;11.764;2023-04-25T07:44:39;5.00;;;4.07;;
2173;SDS011;1093;51.424;11.764;2023-04-25T07:47:07;7.63;;;4.43;;
2173;SDS011;1093;51.424;11.764;2023-04-25T07:49:35;6.60;;;5.13;;
2173;SDS011;1093;51.424;11.764;2023-04-25T07:52:03;5.47;;;3.50;;
2173;SDS011;1093;51.424;11.764;2023-04-25T07:54:30;14.10;;;3.60;;
2173;SDS011;1093;51.424;11.764;2023-04-25T07:56:59;8.63;;;4.50;;
2173;SDS011;1093;51.424;11.764;2023-04-25T07:59:26;8.80;;;3.33;;
2173;SDS011;1093;51.424;11.764;2023-04-25T08:01:53;11.17;;;3.70;;
2173;SDS011;1093;51.424;11.764;2023-04-25T08:04:20;9.80;;;3.93;;
2173;SDS011;1093;51.424;11.764;2023-04-25T08:06:46;4.60;;;3.80;;
2173;SDS011;1093;51.424;11.764;2023-04-25T08:09:13;14.30;;;4.77;;
2173;SDS011;1093;51.424;11.764;2023-04-25T08:11:40;9.63;;;4.10;;
2173;SDS011;1093;51.424;11.764;2023-04-25T08:14:09;6.90;;;3.80;;
2173;SDS011;1093;51.424;11.764;2023-04-25T08:16:36;13.90;;;5.50;;
2173;SDS011;1093;51.424;11.764;2023-04-25T08:19:03;15.73;;;5.40;;
2173;SDS011;1093;51.424;11.764;2023-04-25T08:21:29;14.23;;;4.93;;
2173;SDS011;1093;51.424;11.764;2023-04-25T08:23:57;14.80;;;5.60;;
2173;SDS011;1093;51.424;11.764;2023-04-25T08:26:24;12.30;;;5.00;;
2173;SDS011;1093;51.424;11.764;2023-04-25T08:28:51;12.63;;;5.43;;
2173;SDS011;1093;51.424;11.764;2023-04-25T08:31:19;12.30;;;4.67;;
2173;SDS011;1093;51.424;11.764;2023-04-25T08:33:46;11.60;;;4.77;;
2173;SDS011;1093;51.424;11.764;2023-04-25T08:36:14;11.37;;;5.13;;
2173;SDS011;1093;51.424;11.764;2023-04-25T08:38:42;13.13;;;5.77;;
2173;SDS011;1093;51.424;11.764;2023-04-25T08:41:09;16.07;;;6.00;;
2173;SDS011;1093;51.424;11.764;2023-04-25T08:43:37;12.60;;;5.30;;
2173;SDS011;1093;51.424;11.764;2023-04-25T08:46:08;10.70;;;5.93;;
2173;SDS011;1093;51.424;11.764;2023-04-25T08:48:37;14.40;;;5.73;;
2173;SDS011;1093;51.424;11.764;2023-04-25T08:51:06;15.30;;;6.80;;
2173;SDS011;1093;51.424;11.764;2023-04-25T08:53:34;11.90;;;6.67;;
2173;SDS011;1093;51.424;11.764;2023-04-25T08:56:01;14.13;;;6.40;;
2173;SDS011;1093;51.424;11.764;2023-04-25T08:58:28;15.97;;;6.70;;
2173;SDS011;1093;51.424;11.764;2023-04-25T09:00:55;7.30;;;5.70;;
2173;SDS011;1093;51.424;11.764;2023-04-25T09:03:22;19.00;;;6.23;;
2173;SDS011;1093;51.424;11.764;2023-04-25T09:05:50;11.37;;;5.30;;
2173;SDS011;1093;51.424;11.764;2023-04-25T09:08:17;12.37;;;5.77;;
2173;SDS011;1093;51.424;11.764;2023-04-25T09:10:44;16.43;;;6.70;;
2173;SDS011;1093;51.424;11.764;2023-04-25T09:13:11;7.70;;;6.00;;
2173;SDS011;1093;51.424;11.764;2023-04-25T09:15:46;17.37;;;7.00;;
2173;SDS011;1093;51.424;11.764;2023-04-25T09:18:21;13.77;;;7.17;;
2173;SDS011;1093;51.424;11.764;2023-04-25T09:20:51;10.53;;;6.10;;
2173;SDS011;1093;51.424;11.764;2023-04-25T09:23:19;14.67;;;7.33;;
2173;SDS011;1093;51.424;11.764;2023-04-25T09:25:47;20.40;;;7.07;;
2173;SDS011;1093;51.424;11.764;2023-04-25T09:28:14;14.43;;;6.90;;
2173;SDS011;1093;51.424;11.764;2023-04-25T09:30:41;18.10;;;7.83;;
2173;SDS011;1093;51.424;11.764;2023-04-25T09:33:08;13.80;;;6.30;;
2173;SDS011;1093;51.424;11.764;2023-04-25T09:35:37;14.77;;;6.83;;
2173;SDS011;1093;51.424;11.764;2023-04-25T09:38:10;10.07;;;5.60;;
2173;SDS011;1093;51.424;11.764;2023-04-25T09:40:41;7.97;;;5.13;;
2173;SDS011;1093;51.424;11.764;2023-04-25T09:43:08;17.37;;;5.23;;
2173;SDS011;1093;51.424;11.764;2023-04-25T09:45:40;10.80;;;6.03;;
2173;SDS011;1093;51.424;11.764;2023-04-25T09:48:10;11.67;;;4.93;;
2173;SDS011;1093;51.424;11.764;2023-04-25T09:50:37;12.73;;;5.00;;
2173;SDS011;1093;51.424;11.764;2023-04-25T09:53:05;21.47;;;5.17;;
2173;SDS011;1093;51.424;11.764;2023-04-25T09:55:34;14.80;;;5.37;;
2173;SDS011;1093;51.424;11.764;2023-04-25T09:58:04;21.70;;;5.73;;
2173;SDS011;1093;51.424;11.764;2023-04-25T10:00:32;14.63;;;4.40;;
2173;SDS011;1093;51.424;11.764;2023-04-25T10:03:00;13.30;;;5.73;;
2173;SDS011;1093;51.424;11.764;2023-04-25T10:05:30;12.67;;;4.83;;
2173;SDS011;1093;51.424;11.764;2023-04-25T10:07:58;12.97;;;5.00;;
2173;SDS011;1093;51.424;11.764;2023-04-25T10:10:28;18.67;;;5.00;;
2173;SDS011;1093;51.424;11.764;2023-04-25T10:13:02;11.30;;;4.80;;
2173;SDS011;1093;51.424;11.764;2023-04-25T10:15:34;15.93;;;6.40;;
2173;SDS011;1093;51.424;11.764;2023-04-25T10:18:01;14.77;;;6.13;;
2173;SDS011;1093;51.424;11.764;2023-04-25T10:20:28;17.50;;;5.70;;
2173;SDS011;1093;51.424;11.764;2023-04-25T10:22:57;15.60;;;5.30;;
2173;SDS011;1093;51.424;11.764;2023-04-25T10:25:28;18.10;;;5.57;;
2173;SDS011;1093;51.424;11.764;2023-04-25T10:27:55;12.50;;;4.90;;
2173;SDS011;1093;51.424;11.764;2023-04-25T10:30:23;8.53;;;5.00;;
2173;SDS011;1093;51.424;11.764;2023-04-25T10:32:51;16.67;;;7.33;;
2173;SDS011;1093;51.424;11.764;2023-04-25T10:35:23;11.00;;;5.07;;
2173;SDS011;1093;51.424;11.764;2023-04-25T10:38:03;11.73;;;5.47;;
2173;SDS011;1093;51.424;11.764;2023-04-25T10:40:31;10.07;;;5.00;;
2173;SDS011;1093;51.424;11.764;2023-04-25T10:46:00;8.53;;;5.27;;
2173;SDS011;1093;51.424;11.764;2023-04-25T10:48:27;7.17;;;4.20;;
2173;SDS011;1093;51.424;11.764;2023-04-25T10:51:06;12.70;;;5.37;;
2173;SDS011;1093;51.424;11.764;2023-04-25T10:53:33;9.73;;;3.97;;
2173;SDS011;1093;51.424;11.764;2023-04-25T10:56:00;6.60;;;3.57;;
2173;SDS011;1093;51.424;11.764;2023-04-25T10:58:35;12.07;;;3.80;;
2173;SDS011;1093;51.424;11.764;2023-04-25T11:01:03;5.90;;;3.60;;
2173;SDS011;1093;51.424;11.764;2023-04-25T11:03:30;9.90;;;4.60;;
2173;SDS011;1093;51.424;11.764;2023-04-25T11:05:57;18.03;;;4.60;;
2173;SDS011;1093;51.424;11.764;2023-04-25T11:08:28;11.40;;;4.50;;
2173;SDS011;1093;51.424;11.764;2023-04-25T11:11:08;8.90;;;4.27;;
2173;SDS011;1093;51.424;11.764;2023-04-25T11:13:35;10.30;;;5.27;;
2173;SDS011;1093;51.424;11.764;2023-04-25T11:16:03;15.43;;;3.70;;
2173;SDS011;1093;51.424;11.764;2023-04-25T11:18:33;6.40;;;3.10;;
2173;SDS011;1093;51.424;11.764;2023-04-25T11:21:00;7.80;;;4.60;;
2173;SDS011;1093;51.424;11.764;2023-04-25T11:23:28;12.03;;;4.50;;
2173;SDS011;1093;51.424;11.764;2023-04-25T11:25:56;7.70;;;3.70;;
2173;SDS011;1093;51.424;11.764;2023-04-25T11:28:22;11.20;;;4.00;;
2173;SDS011;1093;51.424;11.764;2023-04-25T11:30:49;10.47;;;3.70;;
2173;SDS011;1093;51.424;11.764;2023-04-25T11:33:18;11.60;;;4.80;;
2173;SDS011;1093;51.424;11.764;2023-04-25T11:35:49;10.57;;;4.57;;
2173;SDS011;1093;51.424;11.764;2023-04-25T11:38:16;14.57;;;4.20;;
2173;SDS011;1093;51.424;11.764;2023-04-25T11:40:42;10.27;;;3.83;;
2173;SDS011;1093;51.424;11.764;2023-04-25T11:43:09;7.30;;;4.13;;
2173;SDS011;1093;51.424;11.764;2023-04-25T11:45:36;13.93;;;4.20;;
2173;SDS011;1093;51.424;11.764;2023-04-25T11:48:03;20.20;;;4.77;;
2173;SDS011;1093;51.424;11.764;2023-04-25T11:50:31;9.67;;;3.83;;
2173;SDS011;1093;51.424;11.764;2023-04-25T11:52:58;11.33;;;3.40;;
2173;SDS011;1093;51.424;11.764;2023-04-25T11:55:25;13.33;;;4.60;;
2173;SDS011;1093;51.424;11.764;2023-04-25T11:57:52;11.10;;;3.93;;
2173;SDS011;1093;51.424;11.764;2023-04-25T12:00:19;7.90;;;3.30;;
2173;SDS011;1093;51.424;11.764;2023-04-25T12:02:48;8.50;;;3.23;;
2173;SDS011;1093;51.424;11.764;2023-04-25T12:05:18;9.87;;;2.90;;
2173;SDS011;1093;51.424;11.764;2023-04-25T12:07:47;10.30;;;3.73;;
2173;SDS011;1093;51.424;11.764;2023-04-25T12:10:14;8.83;;;3.77;;
2173;SDS011;1093;51.424;11.764;2023-04-25T12:12:42;6.50;;;3.23;;
2173;SDS011;1093;51.424;11.764;2023-04-25T12:15:10;7.27;;;2.90;;
2173;SDS011;1093;51.424;11.764;2023-04-25T12:17:40;10.93;;;4.30;;
2173;SDS011;1093;51.424;11.764;2023-04-25T12:20:08;5.30;;;3.47;;
2173;SDS011;1093;51.424;11.764;2023-04-25T12:22:36;18.97;;;3.97;;
2173;SDS011;1093;51.424;11.764;2023-04-25T12:25:04;8.83;;;3.10;;
2173;SDS011;1093;51.424;11.764;2023-04-25T12:27:32;10.50;;;3.70;;
2173;SDS011;1093;51.424;11.764;2023-04-25T12:30:01;6.00;;;3.23;;
2173;SDS011;1093;51.424;11.764;2023-04-25T12:32:28;8.10;;;3.53;;
2173;SDS011;1093;51.424;11.764;2023-04-25T12:34:55;5.43;;;3.63;;
2173;SDS011;1093;51.424;11.764;2023-04-25T12:37:22;7.90;;;3.50;;
2173;SDS011;1093;51.424;11.764;2023-04-25T12:39:49;8.07;;;5.23;;
2173;SDS011;1093;51.424;11.764;2023-04-25T12:42:18;6.03;;;3.17;;
2173;SDS011;1093;51.424;11.764;2023-04-25T12:44:44;6.27;;;4.23;;
2173;SDS011;1093;51.424;11.764;2023-04-25T12:47:11;8.33;;;3.30;;
2173;SDS011;1093;51.424;11.764;2023-04-25T12:49:38;8.70;;;3.20;;
2173;SDS011;1093;51.424;11.764;2023-04-25T12:52:05;5.87;;;2.97;;
2173;SDS011;1093;51.424;11.764;2023-04-25T12:54:31;4.00;;;2.77;;
2173;SDS011;1093;51.424;11.764;2023-04-25T12:56:58;9.33;;;3.60;;
2173;SDS011;1093;51.424;11.764;2023-04-25T12:59:27;7.33;;;3.27;;
2173;SDS011;1093;51.424;11.764;2023-04-25T13:01:54;10.70;;;2.90;;
2173;SDS011;1093;51.424;11.764;2023-04-25T13:04:21;8.30;;;2.77;;
2173;SDS011;1093;51.424;11.764;2023-04-25T13:06:48;9.00;;;2.90;;
2173;SDS011;1093;51.424;11.764;2023-04-25T13:09:15;7.27;;;4.30;;
2173;SDS011;1093;51.424;11.764;2023-04-25T13:11:41;7.37;;;3.10;;
2173;SDS011;1093;51.424;11.764;2023-04-25T13:14:08;7.10;;;3.50;;
2173;SDS011;1093;51.424;11.764;2023-04-25T13:16:37;9.77;;;4.00;;
2173;SDS011;1093;51.424;11.764;2023-04-25T13:19:04;6.90;;;2.70;;
2173;SDS011;1093;51.424;11.764;2023-04-25T13:21:32;7.83;;;3.00;;
2173;SDS011;1093;51.424;11.764;2023-04-25T13:23:59;4.67;;;2.67;;
2173;SDS011;1093;51.424;11.764;2023-04-25T13:26:26;5.17;;;2.93;;
2173;SDS011;1093;51.424;11.764;2023-04-25T13:28:52;11.57;;;3.23;;
2173;SDS011;1093;51.424;11.764;2023-04-25T13:31:19;15.20;;;3.83;;
2173;SDS011;1093;51.424;11.764;2023-04-25T13:33:47;4.47;;;2.37;;
2173;SDS011;1093;51.424;11.764;2023-04-25T13:36:14;4.40;;;3.17;;
2173;SDS011;1093;51.424;11.764;2023-04-25T13:38:40;6.33;;;2.90;;
2173;SDS011;1093;51.424;11.764;2023-04-25T13:41:08;5.27;;;3.30;;
2173;SDS011;1093;51.424;11.764;2023-04-25T13:43:36;5.27;;;2.37;;
2173;SDS011;1093;51.424;11.764;2023-04-25T13:46:03;5.97;;;2.97;;
2173;SDS011;1093;51.424;11.764;2023-04-25T13:48:29;4.30;;;2.50;;
2173;SDS011;1093;51.424;11.764;2023-04-25T13:50:57;6.90;;;2.70;;
2173;SDS011;1093;51.424;11.764;2023-04-25T13:53:24;5.90;;;3.00;;
2173;SDS011;1093;51.424;11.764;2023-04-25T13:55:51;7.33;;;3.07;;
2173;SDS011;1093;51.424;11.764;2023-04-25T13:58:18;4.93;;;2.60;;
2173;SDS011;1093;51.424;11.764;2023-04-25T14:00:45;5.17;;;2.80;;
2173;SDS011;1093;51.424;11.764;2023-04-25T14:03:12;7.17;;;3.10;;
2173;SDS011;1093;51.424;11.764;2023-04-25T14:05:39;4.73;;;2.97;;
2173;SDS011;1093;51.424;11.764;2023-04-25T14:08:07;7.80;;;3.10;;
2173;SDS011;1093;51.424;11.764;2023-04-25T14:10:35;9.00;;;4.13;;
2173;SDS011;1093;51.424;11.764;2023-04-25T14:13:02;7.40;;;3.60;;
2173;SDS011;1093;51.424;11.764;2023-04-25T14:15:30;6.57;;;2.83;;
2173;SDS011;1093;51.424;11.764;2023-04-25T14:17:57;9.67;;;4.10;;
2173;SDS011;1093;51.424;11.764;2023-04-25T14:20:24;6.57;;;3.10;;
2173;SDS011;1093;51.424;11.764;2023-04-25T14:22:51;6.63;;;2.77;;
2173;SDS011;1093;51.424;11.764;2023-04-25T14:25:20;6.10;;;2.93;;
2173;SDS011;1093;51.424;11.764;2023-04-25T14:27:47;5.60;;;3.03;;
2173;SDS011;1093;51.424;11.764;2023-04-25T14:30:15;5.40;;;2.27;;
2173;SDS011;1093;51.424;11.764;2023-04-25T14:32:42;8.13;;;3.60;;
2173;SDS011;1093;51.424;11.764;2023-04-25T14:35:09;3.27;;;2.47;;
2173;SDS011;1093;51.424;11.764;2023-04-25T14:37:36;8.73;;;3.00;;
2173;SDS011;1093;51.424;11.764;2023-04-25T14:40:03;4.53;;;3.13;;
2173;SDS011;1093;51.424;11.764;2023-04-25T14:42:35;5.60;;;2.80;;
2173;SDS011;1093;51.424;11.764;2023-04-25T14:45:02;3.90;;;2.80;;
2173;SDS011;1093;51.424;11.764;2023-04-25T14:47:29;10.20;;;3.53;;
2173;SDS011;1093;51.424;11.764;2023-04-25T14:49:56;5.80;;;2.80;;
2173;SDS011;1093;51.424;11.764;2023-04-25T14:52:23;5.40;;;3.00;;
2173;SDS011;1093;51.424;11.764;2023-04-25T14:54:50;4.80;;;2.60;;